Terminal Aerodrome Forecast
Issued by NWS

Home | Current Version | Previous Version | Graphics & Text | Print | Product List | Glossary On
Versions: 1 2 3 4 5 6 7 8 9 10 11 12 13 14 15
369
FTUS43 KBIS 242332
TAFJMS
TAF
KJMS 242332Z 2500/2524 33016G24KT P6SM BKN030 OVC060
     FM250300 32008KT P6SM BKN030
     FM250400 32007KT P6SM SCT030
     FM250800 30006KT P6SM FEW150
     FM251400 32013G21KT P6SM SCT040 BKN060=

USA.gov is the U.S. government's official web portal to all federal, state and local government web resources and services.